Time;durP1;ratioP1;P1;durP2;ratioP2;P2;SDS_P1;SDS_P2;PMS_P1;PMS_P2;Temp;Humidity;BMP_temperature;BMP_pressure;BME280_temperature;BME280_humidity;BME280_pressure;Samples;Min_cycle;Max_cycle;Signal;HPM_P1;HPM_P2
2021/03/31 00:02:08;;;;;;;15.65;9.70;;;;;;;6.82;100.00;97345.78;5031580;28;20060;-50
2021/03/31 00:04:36;;;;;;;15.65;10.25;;;;;;;6.62;100.00;97344.44;4997089;28;20072;-50
2021/03/31 00:07:05;;;;;;;19.48;9.90;;;;;;;6.81;100.00;97341.44;5030569;28;20061;-50
2021/03/31 00:09:33;;;;;;;19.08;9.50;;;;;;;6.93;100.00;97330.19;4984492;28;20064;-50
2021/03/31 00:12:00;;;;;;;15.82;9.82;;;;;;;6.76;100.00;97335.69;5026216;28;20068;-49
2021/03/31 00:14:28;;;;;;;18.58;9.40;;;;;;;6.58;100.00;97330.69;5002885;28;20063;-50
2021/03/31 00:16:56;;;;;;;17.52;8.85;;;;;;;6.53;100.00;97321.44;5026891;28;20334;-55
2021/03/31 00:19:23;;;;;;;15.88;9.43;;;;;;;6.65;100.00;97326.72;4991981;28;20046;-55
2021/03/31 00:21:52;;;;;;;17.58;9.20;;;;;;;6.65;100.00;97323.28;5026643;28;20514;-53
2021/03/31 00:24:19;;;;;;;15.38;9.15;;;;;;;6.45;100.00;97324.53;5001942;28;20068;-49
2021/03/31 00:26:47;;;;;;;20.38;9.27;;;;;;;6.37;100.00;97322.41;5027538;28;20077;-53
2021/03/31 00:29:14;;;;;;;20.10;10.18;;;;;;;6.30;100.00;97315.06;5005891;28;20088;-50
2021/03/31 00:31:42;;;;;;;16.77;9.75;;;;;;;6.01;100.00;97315.06;5004483;28;20033;-47
2021/03/31 00:34:10;;;;;;;15.23;8.88;;;;;;;5.97;100.00;97310.97;5001811;28;20076;-49
2021/03/31 00:36:37;;;;;;;15.30;9.73;;;;;;;6.00;100.00;97316.03;5027567;28;20072;-51
2021/03/31 00:39:08;;;;;;;15.27;9.65;;;;;;;6.33;100.00;97313.06;5026880;28;20065;-50
2021/03/31 00:41:35;;;;;;;19.95;9.90;;;;;;;6.15;100.00;97312.44;5002174;28;20069;-51
2021/03/31 00:44:03;;;;;;;16.10;9.70;;;;;;;6.09;100.00;97312.84;5007729;28;20803;-50
2021/03/31 00:46:30;;;;;;;16.70;9.48;;;;;;;6.29;100.00;97308.94;4994865;28;20058;-52
2021/03/31 00:48:59;;;;;;;16.50;9.43;;;;;;;6.33;100.00;97304.34;5020201;28;20057;-51
2021/03/31 00:51:27;;;;;;;18.20;9.43;;;;;;;5.91;100.00;97306.06;4978897;28;20057;-47
2021/03/31 00:53:54;;;;;;;17.85;9.25;;;;;;;6.02;100.00;97306.31;5021057;28;20065;-48
2021/03/31 00:56:23;;;;;;;15.93;9.30;;;;;;;6.30;100.00;97297.56;5000770;28;20072;-45
2021/03/31 00:58:50;;;;;;;16.63;8.85;;;;;;;6.15;100.00;97291.47;5021001;28;20061;-49
2021/03/31 01:01:18;;;;;;;15.00;8.07;;;;;;;5.63;100.00;97297.31;4991062;28;20072;-50
2021/03/31 01:03:46;;;;;;;13.38;9.18;;;;;;;5.41;100.00;97297.78;5018812;28;20477;-48
2021/03/31 01:06:13;;;;;;;15.00;9.18;;;;;;;5.64;100.00;97296.41;4993338;28;20061;-51
2021/03/31 01:08:41;;;;;;;17.90;9.50;;;;;;;5.83;100.00;97288.25;5019979;28;20076;-48
2021/03/31 01:11:13;;;;;;;15.98;8.88;;;;;;;5.84;100.00;97289.91;5003359;28;20072;-46
2021/03/31 01:13:57;;;;;;;18.48;9.63;;;;;;;5.77;100.00;97287.78;5009462;28;20558;-49
2021/03/31 01:16:36;;;;;;;16.85;9.00;;;;;;;5.82;100.00;97291.81;4998756;28;20076;-48
2021/03/31 01:19:19;;;;;;;16.53;9.80;;;;;;;5.70;100.00;97284.69;5010057;28;20072;-49
2021/03/31 01:22:20;;;;;;;16.02;10.40;;;;;;;5.91;100.00;97282.53;5005048;28;20077;-49
2021/03/31 01:25:13;;;;;;;16.13;10.02;;;;;;;5.92;100.00;97289.47;4988856;28;20073;-50
2021/03/31 01:27:55;;;;;;;15.60;9.98;;;;;;;5.86;100.00;97289.84;4994195;28;20064;-49
2021/03/31 01:30:30;;;;;;;14.23;9.65;;;;;;;5.86;100.00;97293.28;5011425;28;20072;-46
2021/03/31 01:33:16;;;;;;;21.48;11.10;;;;;;;5.89;100.00;97294.88;5001391;28;20101;-47
2021/03/31 01:35:45;;;;;;;19.08;9.98;;;;;;;5.75;100.00;97287.88;5021323;28;20073;-48
2021/03/31 01:38:14;;;;;;;15.52;8.40;;;;;;;6.09;100.00;97289.28;5003986;28;20072;-48
2021/03/31 01:40:48;;;;;;;20.52;9.70;;;;;;;5.94;100.00;97285.81;5012512;28;20170;-48
2021/03/31 01:43:16;;;;;;;13.35;8.70;;;;;;;5.84;100.00;97283.84;4995358;28;20073;-47
2021/03/31 01:45:48;;;;;;;16.13;9.52;;;;;;;5.90;100.00;97281.69;5007513;28;20057;-49
2021/03/31 01:48:18;;;;;;;16.25;8.93;;;;;;;6.06;100.00;97279.00;5000174;28;20077;-47
2021/03/31 01:50:50;;;;;;;17.08;10.20;;;;;;;5.82;100.00;97273.47;5019460;28;20106;-46
2021/03/31 01:53:18;;;;;;;15.93;9.88;;;;;;;5.45;100.00;97285.34;4998124;28;20076;-47
2021/03/31 01:55:48;;;;;;;18.80;10.32;;;;;;;5.43;100.00;97276.75;5022502;28;20069;-50
2021/03/31 01:58:18;;;;;;;18.15;11.07;;;;;;;5.44;100.00;97279.28;5001066;28;20065;-48
2021/03/31 02:00:46;;;;;;;20.63;10.38;;;;;;;5.59;100.00;97277.50;5017907;28;20082;-50
2021/03/31 02:03:15;;;;;;;15.13;10.40;;;;;;;5.48;100.00;97272.09;4998790;28;20069;-47
2021/03/31 02:05:43;;;;;;;18.25;10.30;;;;;;;5.57;100.00;97284.59;5022714;28;20073;-47
2021/03/31 02:08:12;;;;;;;22.58;9.98;;;;;;;5.81;100.00;97277.00;4992611;28;20095;-48
2021/03/31 02:10:41;;;;;;;17.83;10.07;;;;;;;5.50;100.00;97279.81;5021319;28;20523;-47
2021/03/31 02:13:10;;;;;;;14.48;9.13;;;;;;;5.42;100.00;97288.97;4993756;28;20523;-48
2021/03/31 02:15:38;;;;;;;20.65;9.80;;;;;;;5.52;100.00;97276.19;5023534;28;20088;-47
2021/03/31 02:18:08;;;;;;;16.83;9.55;;;;;;;5.72;100.00;97277.59;5015845;28;20053;-52
2021/03/31 02:20:36;;;;;;;19.88;9.45;;;;;;;5.65;100.00;97281.53;5016665;28;20085;-49
2021/03/31 02:23:04;;;;;;;17.45;9.15;;;;;;;5.61;100.00;97277.41;5022271;28;20091;-52
2021/03/31 02:25:33;;;;;;;18.33;9.20;;;;;;;5.62;100.00;97276.47;4994817;28;20470;-46
2021/03/31 02:28:00;;;;;;;14.13;10.02;;;;;;;5.54;100.00;97269.09;5027712;28;20065;-48
2021/03/31 02:30:29;;;;;;;16.50;10.00;;;;;;;5.53;100.00;97272.63;4999193;28;20518;-48
2021/03/31 02:33:00;;;;;;;18.45;10.52;;;;;;;5.63;100.00;97270.31;5022109;28;20057;-47
2021/03/31 02:35:29;;;;;;;17.50;10.18;;;;;;;5.38;100.00;97269.19;5003473;28;20050;-48
2021/03/31 02:37:59;;;;;;;18.63;11.77;;;;;;;5.34;100.00;97283.38;5019067;28;20061;-48
2021/03/31 02:40:28;;;;;;;21.13;10.80;;;;;;;5.18;100.00;97274.75;4987112;28;20120;-49
2021/03/31 02:42:57;;;;;;;21.08;11.98;;;;;;;5.29;100.00;97272.34;5020997;28;20076;-52
2021/03/31 02:45:26;;;;;;;20.13;10.97;;;;;;;5.36;100.00;97265.81;4995268;28;20076;-47
2021/03/31 02:47:57;;;;;;;19.75;10.57;;;;;;;5.55;100.00;97265.56;5029399;28;20533;-48
2021/03/31 02:50:26;;;;;;;16.77;10.73;;;;;;;5.29;100.00;97264.50;4997794;28;20080;-46
2021/03/31 02:52:53;;;;;;;20.83;10.60;;;;;;;4.90;100.00;97276.38;5021948;28;20068;-47
2021/03/31 02:55:23;;;;;;;16.85;10.70;;;;;;;5.09;100.00;97267.47;5009375;28;20072;-47
2021/03/31 02:57:51;;;;;;;15.00;9.98;;;;;;;4.79;100.00;97272.72;5019674;28;20069;-47
2021/03/31 03:00:21;;;;;;;17.38;10.18;;;;;;;4.63;100.00;97264.94;4995704;28;20088;-47
2021/03/31 03:02:49;;;;;;;17.88;10.75;;;;;;;4.83;100.00;97261.16;5036147;28;20084;-48
2021/03/31 03:05:19;;;;;;;15.38;10.00;;;;;;;4.75;100.00;97266.84;5003859;28;20081;-48
2021/03/31 03:07:47;;;;;;;17.80;10.50;;;;;;;4.58;100.00;97262.59;5036545;28;20061;-49
2021/03/31 03:10:15;;;;;;;16.25;9.88;;;;;;;4.84;100.00;97270.69;4998489;28;20643;-46
2021/03/31 03:12:46;;;;;;;16.17;10.32;;;;;;;4.93;100.00;97262.31;5022290;28;20061;-52
2021/03/31 03:15:15;;;;;;;16.38;10.25;;;;;;;4.90;100.00;97260.72;5040865;28;20112;-47
2021/03/31 03:17:44;;;;;;;16.60;10.43;;;;;;;4.99;100.00;97259.34;5017747;28;20072;-48
2021/03/31 03:20:13;;;;;;;13.00;9.50;;;;;;;5.10;100.00;97261.31;5035504;28;20515;-51
2021/03/31 03:22:43;;;;;;;14.75;9.35;;;;;;;4.83;100.00;97258.56;5017190;28;20072;-49
2021/03/31 03:25:12;;;;;;;20.23;9.93;;;;;;;4.86;100.00;97261.00;5025535;28;20532;-46
2021/03/31 03:27:42;;;;;;;14.73;8.77;;;;;;;4.85;100.00;97260.16;5007189;28;20092;-48
2021/03/31 03:30:12;;;;;;;14.38;9.60;;;;;;;4.71;100.00;97254.88;5030953;28;20080;-51
2021/03/31 03:32:42;;;;;;;14.90;9.98;;;;;;;4.57;100.00;97255.66;4994734;28;20089;-50
2021/03/31 03:35:12;;;;;;;17.30;10.13;;;;;;;4.37;100.00;97261.16;5036956;28;20090;-51
2021/03/31 03:37:40;;;;;;;17.40;9.65;;;;;;;4.22;100.00;97262.88;5010028;28;20064;-49
2021/03/31 03:40:09;;;;;;;17.08;10.20;;;;;;;4.32;100.00;97263.22;5029432;28;20550;-47
2021/03/31 03:42:36;;;;;;;15.27;10.82;;;;;;;4.53;100.00;97259.38;5004548;28;20061;-46
2021/03/31 03:45:06;;;;;;;17.08;9.95;;;;;;;4.54;100.00;97255.81;5036914;28;20441;-47
2021/03/31 03:47:33;;;;;;;18.85;9.95;;;;;;;4.45;100.00;97257.22;4988934;28;20583;-49
2021/03/31 03:50:01;;;;;;;13.52;9.45;;;;;;;4.52;100.00;97253.31;5037658;28;20077;-49
2021/03/31 03:52:29;;;;;;;18.73;10.10;;;;;;;4.53;100.00;97254.16;5004197;28;20080;-52
2021/03/31 03:54:57;;;;;;;14.75;10.30;;;;;;;4.57;100.00;97252.22;5032422;28;20495;-49
2021/03/31 03:57:26;;;;;;;18.83;10.20;;;;;;;4.56;100.00;97247.94;5000225;28;22942;-49
2021/03/31 03:59:54;;;;;;;17.40;9.35;;;;;;;4.61;100.00;97248.47;5018691;28;20120;-50
2021/03/31 04:02:21;;;;;;;17.95;9.55;;;;;;;4.57;100.00;97253.03;5011459;28;20088;-48
2021/03/31 04:04:49;;;;;;;16.05;9.60;;;;;;;4.56;100.00;97247.94;5044058;28;20065;-48
2021/03/31 04:07:17;;;;;;;15.65;9.85;;;;;;;4.61;100.00;97245.88;5028723;28;20448;-47
2021/03/31 04:09:47;;;;;;;16.02;10.20;;;;;;;4.52;100.00;97247.25;4995472;28;20058;-51
2021/03/31 04:12:16;;;;;;;14.93;10.63;;;;;;;4.39;100.00;97252.34;5034995;28;20076;-47
2021/03/31 04:14:45;;;;;;;22.55;9.63;;;;;;;4.42;100.00;97248.72;4996070;28;20543;-47
2021/03/31 04:17:16;;;;;;;18.25;10.38;;;;;;;4.49;100.00;97258.72;5039731;28;20493;-45
2021/03/31 04:19:47;;;;;;;17.88;11.18;;;;;;;4.89;100.00;97261.66;5007631;28;20064;-49
2021/03/31 04:22:15;;;;;;;18.33;10.05;;;;;;;4.70;100.00;97254.03;5028223;28;20076;-49
2021/03/31 04:24:42;;;;;;;16.45;9.75;;;;;;;4.62;100.00;97251.03;4994481;28;20073;-49
2021/03/31 04:27:12;;;;;;;20.83;10.00;;;;;;;4.53;100.00;97254.16;5022313;28;20069;-47
2021/03/31 04:29:40;;;;;;;19.30;9.95;;;;;;;4.24;100.00;97254.03;4998191;28;20088;-53
2021/03/31 04:32:09;;;;;;;13.30;9.77;;;;;;;4.53;100.00;97251.53;5022764;28;20145;-47
2021/03/31 04:34:38;;;;;;;21.45;10.20;;;;;;;4.56;100.00;97247.94;5003124;28;20490;-49
2021/03/31 04:37:06;;;;;;;15.25;9.52;;;;;;;4.74;100.00;97257.31;5028585;28;20077;-50
2021/03/31 04:39:34;;;;;;;19.42;9.35;;;;;;;4.77;100.00;97254.50;5007471;28;20065;-50
2021/03/31 04:42:01;;;;;;;20.02;10.20;;;;;;;4.86;100.00;97253.16;5024390;28;20069;-48
2021/03/31 04:44:30;;;;;;;13.32;9.32;;;;;;;4.87;100.00;97249.59;5011759;28;20072;-48
2021/03/31 04:46:57;;;;;;;23.35;10.25;;;;;;;4.76;100.00;97258.91;5027212;28;20057;-47
2021/03/31 04:49:25;;;;;;;43.70;11.32;;;;;;;4.75;100.00;97257.22;4993468;28;20057;-52
2021/03/31 04:51:52;;;;;;;22.48;9.15;;;;;;;4.57;100.00;97254.81;5014059;28;20061;-47
2021/03/31 04:54:20;;;;;;;15.07;9.35;;;;;;;4.37;100.00;97253.34;5006646;28;20549;-47
2021/03/31 04:56:47;;;;;;;15.75;9.45;;;;;;;4.28;100.00;97247.72;5022911;28;20628;-47
2021/03/31 04:59:15;;;;;;;16.27;10.00;;;;;;;3.98;100.00;97259.88;5043912;28;20084;-53
2021/03/31 05:01:45;;;;;;;14.45;9.00;;;;;;;3.98;100.00;97254.63;5006310;28;20060;-48
2021/03/31 05:04:12;;;;;;;13.50;9.15;;;;;;;4.10;100.00;97256.59;5033238;28;20091;-47
2021/03/31 05:06:40;;;;;;;16.70;9.70;;;;;;;3.89;100.00;97250.78;5013437;28;20076;-54
2021/03/31 05:09:08;;;;;;;16.23;8.93;;;;;;;4.20;100.00;97249.94;5015871;28;20065;-51
2021/03/31 05:11:37;;;;;;;16.45;9.38;;;;;;;4.30;100.00;97252.84;5003449;28;20088;-45
2021/03/31 05:14:06;;;;;;;13.70;8.60;;;;;;;4.34;100.00;97253.53;5034506;28;20072;-50
2021/03/31 05:16:33;;;;;;;14.95;9.43;;;;;;;4.41;100.00;97254.88;4980971;28;20065;-48
2021/03/31 05:19:02;;;;;;;17.00;9.77;;;;;;;4.43;100.00;97258.22;5036358;28;20539;-51
2021/03/31 05:21:29;;;;;;;11.23;8.60;;;;;;;4.47;100.00;97254.50;5006209;28;20060;-48
2021/03/31 05:23:57;;;;;;;14.48;9.23;;;;;;;4.54;100.00;97250.59;5024249;28;20065;-47
2021/03/31 05:26:25;;;;;;;12.70;9.15;;;;;;;4.83;100.00;97256.78;4995033;28;20443;-48
2021/03/31 05:28:52;;;;;;;14.68;8.88;;;;;;;4.81;100.00;97248.16;5031457;28;20076;-51
2021/03/31 05:31:20;;;;;;;16.77;8.45;;;;;;;4.69;100.00;97251.50;5001295;28;20064;-52
2021/03/31 05:33:48;;;;;;;12.02;7.97;;;;;;;4.70;100.00;97253.19;5029756;28;20061;-53
2021/03/31 05:36:16;;;;;;;14.43;8.23;;;;;;;4.46;100.00;97255.44;5003987;28;20543;-47
2021/03/31 05:38:44;;;;;;;12.68;8.45;;;;;;;4.60;100.00;97262.47;5032501;28;20081;-45
2021/03/31 05:41:12;;;;;;;14.05;8.98;;;;;;;5.09;100.00;97257.00;5014170;28;20084;-49
2021/03/31 05:43:40;;;;;;;13.18;8.50;;;;;;;5.16;100.00;97250.47;5030023;28;20076;-46
2021/03/31 05:46:08;;;;;;;11.80;8.63;;;;;;;4.95;100.00;97256.03;5031031;28;20065;-49
2021/03/31 05:48:36;;;;;;;14.90;9.57;;;;;;;5.44;100.00;97247.06;5013755;28;20075;-49
2021/03/31 05:51:07;;;;;;;16.95;8.60;;;;;;;5.25;100.00;97239.47;5022221;28;20061;-47
2021/03/31 05:53:35;;;;;;;13.32;9.00;;;;;;;5.61;100.00;97233.78;5005282;28;20478;-52
2021/03/31 05:56:05;;;;;;;12.32;8.68;;;;;;;5.88;100.00;97235.59;5033084;28;21355;-50
2021/03/31 05:58:33;;;;;;;13.95;9.00;;;;;;;6.13;100.00;97240.16;4997402;28;20068;-49
2021/03/31 06:01:03;;;;;;;13.82;8.27;;;;;;;6.48;100.00;97237.88;5037332;28;20073;-45
2021/03/31 06:03:31;;;;;;;12.57;8.80;;;;;;;6.52;100.00;97238.53;5003244;28;20068;-52
2021/03/31 06:06:00;;;;;;;15.48;8.50;;;;;;;6.82;100.00;97233.03;5027917;28;20057;-48
2021/03/31 06:08:27;;;;;;;13.13;8.73;;;;;;;7.27;100.00;97223.84;4987679;28;20069;-49
2021/03/31 06:11:00;;;;;;;14.20;8.70;;;;;;;7.56;100.00;97232.31;5016572;28;20066;-46
2021/03/31 06:13:48;;;;;;;13.13;9.10;;;;;;;7.48;100.00;97233.81;4985369;28;20117;-47
2021/03/31 06:16:30;;;;;;;15.35;8.88;;;;;;;7.66;100.00;97229.06;5041833;28;20087;-48
2021/03/31 06:18:57;;;;;;;14.90;8.98;;;;;;;7.94;100.00;97235.81;5004567;28;20098;-49
2021/03/31 06:21:25;;;;;;;18.73;9.10;;;;;;;8.12;100.00;97223.16;5028539;28;20103;-52
2021/03/31 06:23:58;;;;;;;15.55;8.73;;;;;;;8.33;100.00;97217.19;5008656;28;20476;-50
2021/03/31 06:26:29;;;;;;;12.27;8.07;;;;;;;8.38;100.00;97221.31;5022684;28;20060;-48
2021/03/31 06:28:58;;;;;;;16.20;8.10;;;;;;;8.12;100.00;97224.00;5000046;28;20065;-50
2021/03/31 06:31:43;;;;;;;12.27;7.25;;;;;;;8.09;100.00;97222.44;5027209;28;20321;-48
2021/03/31 06:34:14;;;;;;;10.65;7.35;;;;;;;8.03;100.00;97220.25;4994360;28;20072;-47
2021/03/31 06:36:43;;;;;;;13.75;6.90;;;;;;;8.64;100.00;97222.84;5032678;28;20471;-50
2021/03/31 06:39:26;;;;;;;14.63;7.45;;;;;;;9.16;100.00;97213.66;5001368;28;20065;-48
2021/03/31 06:41:57;;;;;;;11.60;6.90;;;;;;;9.22;100.00;97210.56;5021384;28;20045;-49
2021/03/31 06:44:36;;;;;;;12.15;7.40;;;;;;;9.57;100.00;97207.00;5007477;28;20076;-47
2021/03/31 06:47:09;;;;;;;15.68;7.18;;;;;;;9.73;100.00;97212.72;5032322;28;20477;-47
2021/03/31 06:49:37;;;;;;;11.13;6.65;;;;;;;10.07;100.00;97211.84;4997434;28;20573;-47
2021/03/31 06:52:06;;;;;;;13.05;6.47;;;;;;;10.40;100.00;97209.16;5031797;28;20463;-51
2021/03/31 06:54:42;;;;;;;11.30;6.20;;;;;;;10.48;100.00;97199.78;5007965;28;20064;-48
2021/03/31 06:57:12;;;;;;;17.33;5.97;;;;;;;10.54;100.00;97208.03;5024953;28;20076;-48
2021/03/31 06:59:41;;;;;;;8.25;6.35;;;;;;;10.90;100.00;97209.41;4989569;28;20075;-47
2021/03/31 07:02:10;;;;;;;10.95;6.50;;;;;;;11.02;100.00;97204.09;5036277;28;20084;-46
2021/03/31 07:04:38;;;;;;;7.90;5.38;;;;;;;11.07;100.00;97213.28;4996800;28;20069;-49
2021/03/31 07:07:07;;;;;;;8.35;5.63;;;;;;;11.59;99.04;97200.06;5021489;28;20061;-47
2021/03/31 07:09:36;;;;;;;8.27;5.97;;;;;;;11.93;94.05;97205.94;4991477;28;20530;-50
2021/03/31 07:12:17;;;;;;;10.73;5.90;;;;;;;11.71;93.50;97193.72;5025417;28;20065;-52
2021/03/31 07:14:47;;;;;;;9.02;5.93;;;;;;;12.10;88.94;97200.00;5007213;28;20691;-53
2021/03/31 07:17:21;;;;;;;11.65;5.60;;;;;;;12.10;91.64;97200.00;5026670;28;20069;-54
2021/03/31 07:19:49;;;;;;;8.82;5.35;;;;;;;12.22;87.51;97198.09;5030760;28;20061;-49
2021/03/31 07:22:17;;;;;;;9.77;6.00;;;;;;;12.11;89.92;97200.81;5017990;28;20065;-50
2021/03/31 07:24:44;;;;;;;11.15;5.38;;;;;;;12.51;84.75;97203.38;5019879;28;20065;-54
2021/03/31 07:27:14;;;;;;;8.55;5.40;;;;;;;12.48;84.39;97200.19;4992910;28;20078;-50
2021/03/31 07:30:05;;;;;;;10.85;5.70;;;;;;;12.69;82.36;97202.69;5024064;28;20081;-47
2021/03/31 07:32:37;;;;;;;10.77;5.53;;;;;;;12.78;77.99;97196.56;5001380;28;20134;-48
2021/03/31 07:35:08;;;;;;;9.13;5.80;;;;;;;13.39;73.83;97196.22;5035557;28;21524;-48
2021/03/31 07:37:37;;;;;;;12.85;6.20;;;;;;;13.64;72.07;97192.09;5018191;28;20523;-50
2021/03/31 07:40:06;;;;;;;9.80;5.80;;;;;;;13.87;70.19;97189.91;5026504;28;20061;-48
2021/03/31 07:42:35;;;;;;;10.73;6.25;;;;;;;13.81;70.39;97197.63;5007391;28;20065;-48
2021/03/31 07:45:07;;;;;;;12.05;5.78;;;;;;;14.14;68.24;97194.38;5036420;28;20065;-53
2021/03/31 07:47:36;;;;;;;9.85;5.93;;;;;;;13.72;71.93;97186.88;5003221;28;20464;-54
2021/03/31 07:50:05;;;;;;;9.88;6.45;;;;;;;13.34;74.76;97192.34;5038075;28;20475;-51
2021/03/31 07:52:55;;;;;;;9.10;5.45;;;;;;;13.58;70.87;97197.97;5007074;28;20096;-50
2021/03/31 07:55:32;;;;;;;;;;;;;;;14.09;69.70;97195.78;5027696;28;20060;-47
2021/03/31 07:58:28;;;;;;;11.18;6.10;;;;;;;14.31;65.10;97187.41;4998622;28;19987;-50
2021/03/31 08:01:01;;;;;;;16.58;6.50;;;;;;;14.01;67.94;97189.41;5042683;28;20087;-52
2021/03/31 08:03:31;;;;;;;8.70;5.95;;;;;;;14.49;63.35;97184.78;5000939;28;20471;-48
2021/03/31 08:06:08;;;;;;;10.02;6.75;;;;;;;14.68;62.91;97186.47;5036496;28;20066;-46
2021/03/31 08:08:37;;;;;;;11.05;6.53;;;;;;;14.73;63.45;97189.50;5005462;28;20073;-57
2021/03/31 08:11:05;;;;;;;15.02;6.47;;;;;;;15.13;62.49;97183.66;5021047;28;20473;-49
2021/03/31 08:13:35;;;;;;;13.38;6.20;;;;;;;15.50;57.86;97179.09;5002101;28;20072;-51
2021/03/31 08:16:23;;;;;;;13.57;6.80;;;;;;;15.09;58.50;97176.19;5044636;28;20069;-47
2021/03/31 08:18:56;;;;;;;11.50;6.63;;;;;;;15.22;57.42;97175.78;5007197;28;20075;-48
2021/03/31 08:21:25;;;;;;;12.05;6.60;;;;;;;14.96;57.63;97184.53;5029226;28;20075;-46
2021/03/31 08:23:55;;;;;;;11.73;6.55;;;;;;;15.54;56.75;97175.94;5002430;28;20077;-48
2021/03/31 08:26:26;;;;;;;10.85;7.20;;;;;;;15.32;62.63;97180.00;5030444;28;20519;-50
2021/03/31 08:28:54;;;;;;;12.05;6.95;;;;;;;15.47;59.69;97179.41;5000914;28;20073;-46
2021/03/31 08:31:24;;;;;;;17.38;7.18;;;;;;;15.86;57.83;97171.81;5034971;28;20483;-50
2021/03/31 08:33:52;;;;;;;12.63;7.15;;;;;;;15.72;55.01;97167.94;4996027;28;20069;-53
2021/03/31 08:36:20;;;;;;;10.50;5.85;;;;;;;15.57;51.25;97164.19;5037743;28;20077;-54
2021/03/31 08:38:52;;;;;;;12.05;6.55;;;;;;;16.07;50.36;97172.25;5007093;28;20080;-51
2021/03/31 08:41:22;;;;;;;12.13;6.70;;;;;;;15.77;49.88;97170.13;5027949;28;20076;-49
2021/03/31 08:43:50;;;;;;;10.63;6.78;;;;;;;16.01;51.83;97174.72;5003181;28;20072;-48
2021/03/31 08:46:29;;;;;;;16.33;7.43;;;;;;;16.10;52.28;97173.72;5029945;28;20073;-50
2021/03/31 08:48:56;;;;;;;15.20;7.65;;;;;;;16.35;51.55;97170.16;5002974;28;20524;-52
2021/03/31 08:51:25;;;;;;;14.57;7.20;;;;;;;16.21;51.23;97167.25;5028203;28;20079;-51
2021/03/31 08:53:52;;;;;;;12.48;7.30;;;;;;;16.45;49.67;97169.16;5002828;28;20081;-51
2021/03/31 08:56:21;;;;;;;13.13;6.90;;;;;;;16.49;49.68;97171.34;5033009;28;20081;-52
2021/03/31 08:58:52;;;;;;;14.10;7.88;;;;;;;16.89;49.38;97163.56;5010909;28;20057;-50
2021/03/31 09:01:28;;;;;;;17.30;7.63;;;;;;;16.94;49.27;97153.25;5022947;28;20486;-50
2021/03/31 09:04:15;;;;;;;13.00;6.90;;;;;;;16.97;47.48;97145.75;5018566;28;20069;-51
2021/03/31 09:06:43;;;;;;;15.32;7.40;;;;;;;17.10;47.94;97155.88;5032646;28;20542;-50
2021/03/31 09:09:10;;;;;;;13.48;7.45;;;;;;;17.05;46.52;97153.72;4995519;28;20195;-50
2021/03/31 09:11:38;;;;;;;16.05;6.97;;;;;;;17.53;45.80;97140.47;5025403;28;20077;-51
2021/03/31 09:14:18;;;;;;;13.65;7.50;;;;;;;18.12;44.31;97143.59;5039506;28;20073;-53
2021/03/31 09:16:51;;;;;;;12.77;6.38;;;;;;;18.38;44.40;97145.13;5025775;28;20068;-57
2021/03/31 09:19:28;;;;;;;17.02;7.60;;;;;;;18.10;44.69;97150.09;5019936;28;20546;-55
2021/03/31 09:21:56;;;;;;;16.67;7.40;;;;;;;17.60;45.56;97141.44;5034159;28;20064;-55
2021/03/31 09:24:27;;;;;;;14.32;7.75;;;;;;;18.53;44.77;97131.81;5022868;28;20064;-52
2021/03/31 09:26:56;;;;;;;21.77;7.90;;;;;;;18.06;43.63;97136.25;4999309;28;20092;-49
2021/03/31 09:29:24;;;;;;;16.30;7.85;;;;;;;18.67;43.00;97129.19;5039345;28;20076;-51
2021/03/31 09:31:53;;;;;;;13.68;7.40;;;;;;;18.68;42.11;97130.03;4994816;28;20081;-49
2021/03/31 09:34:23;;;;;;;14.15;7.20;;;;;;;18.91;41.97;97128.19;5037087;28;20068;-54
2021/03/31 09:37:02;;;;;;;11.77;7.00;;;;;;;18.96;42.01;97125.00;5009876;28;20483;-49
2021/03/31 09:39:41;;;;;;;14.43;7.47;;;;;;;19.20;41.36;97127.44;5024818;28;20088;-52
2021/03/31 09:42:19;;;;;;;14.15;7.68;;;;;;;19.55;41.22;97116.22;5000358;28;20079;-50
2021/03/31 09:44:47;;;;;;;15.80;7.82;;;;;;;19.38;41.23;97118.22;5030523;28;20080;-50
2021/03/31 09:47:16;;;;;;;14.52;7.38;;;;;;;19.27;40.54;97119.53;5001257;28;20069;-50
2021/03/31 09:49:44;;;;;;;13.20;7.40;;;;;;;19.50;40.69;97124.78;5035069;28;20061;-54
2021/03/31 09:52:12;;;;;;;13.73;7.45;;;;;;;19.49;40.69;97111.59;5007769;28;20463;-49
2021/03/31 09:54:40;;;;;;;13.98;7.97;;;;;;;19.27;40.56;97113.31;5024691;28;20068;-50
2021/03/31 09:57:10;;;;;;;13.55;7.55;;;;;;;19.19;40.36;97115.06;5003006;28;20069;-55
2021/03/31 09:59:38;;;;;;;18.30;7.75;;;;;;;19.50;40.77;97105.22;5030153;28;20077;-50
2021/03/31 10:02:07;;;;;;;13.85;8.05;;;;;;;19.89;39.29;97107.63;5004208;28;20668;-52
2021/03/31 10:04:38;;;;;;;14.82;8.20;;;;;;;20.11;38.37;97105.81;5041383;28;20072;-53
2021/03/31 10:07:10;;;;;;;;;;;;;;;19.83;39.67;97106.50;5003447;28;20072;-51
2021/03/31 10:09:42;;;;;;;14.20;7.78;;;;;;;19.95;37.92;97098.00;5021114;28;19972;-51
2021/03/31 10:12:11;;;;;;;15.57;7.93;;;;;;;20.50;37.92;97102.75;5009599;28;20072;-48
2021/03/31 10:14:46;;;;;;;16.35;7.68;;;;;;;20.41;39.14;97101.19;5029199;28;20535;-52
2021/03/31 10:17:15;;;;;;;23.95;8.63;;;;;;;20.35;38.04;97091.25;5001920;28;20080;-50
2021/03/31 10:19:44;;;;;;;14.80;7.88;;;;;;;20.50;38.70;97092.03;5035138;28;20069;-56
2021/03/31 10:22:12;;;;;;;15.48;7.65;;;;;;;20.95;37.67;97081.06;4993733;28;20139;-56
2021/03/31 10:25:00;;;;;;;12.50;7.68;;;;;;;21.17;36.37;97077.31;5027986;28;20068;-53
2021/03/31 10:27:41;;;;;;;15.82;7.80;;;;;;;20.45;36.12;97083.72;5006712;28;20073;-52
2021/03/31 10:30:30;;;;;;;18.92;8.90;;;;;;;21.45;35.38;97076.47;5036938;28;20064;-53
2021/03/31 10:33:17;;;;;;;15.07;7.75;;;;;;;20.69;36.29;97069.13;4995409;28;20081;-54
2021/03/31 10:35:49;;;;;;;14.80;8.20;;;;;;;20.03;36.03;97071.13;5034979;28;20108;-50
2021/03/31 10:38:26;;;;;;;20.63;8.02;;;;;;;21.10;34.89;97063.84;5004637;28;20547;-53
2021/03/31 10:41:24;;;;;;;15.18;8.35;;;;;;;21.81;33.98;97060.13;5020896;28;20065;-54
2021/03/31 10:47:07;;;;;;;15.52;7.85;;;;;;;21.42;36.27;97047.38;5036568;28;20464;-56
2021/03/31 10:49:42;;;;;;;18.88;8.60;;;;;;;21.69;35.32;97051.00;5006700;28;20099;-56
2021/03/31 10:52:16;;;;;;;15.82;8.80;;;;;;;21.39;35.24;97047.75;5024354;28;20070;-52
2021/03/31 10:54:43;;;;;;;20.95;9.48;;;;;;;21.16;35.36;97038.09;4994792;28;20080;-53
2021/03/31 10:57:12;;;;;;;14.00;8.23;;;;;;;21.49;34.72;97048.22;5020711;28;20077;-56
2021/03/31 10:59:40;;;;;;;16.17;8.32;;;;;;;21.61;35.61;97046.63;4997631;28;20081;-56
2021/03/31 11:02:08;;;;;;;16.25;9.05;;;;;;;22.01;33.07;97038.72;5042895;28;20076;-51
2021/03/31 11:04:35;;;;;;;13.75;8.70;;;;;;;21.26;34.70;97040.41;5002397;28;20072;-52
2021/03/31 11:07:03;;;;;;;14.15;8.40;;;;;;;21.74;35.22;97035.09;5037141;28;20053;-49
2021/03/31 11:09:31;;;;;;;17.38;9.95;;;;;;;22.01;33.96;97036.03;5004352;28;20083;-49
2021/03/31 11:11:59;;;;;;;22.27;10.13;;;;;;;22.12;33.45;97034.59;5025493;28;20058;-49
2021/03/31 11:14:27;;;;;;;15.68;9.20;;;;;;;21.85;33.40;97034.53;5007987;28;20128;-53
2021/03/31 11:16:57;;;;;;;16.77;10.40;;;;;;;21.95;33.50;97034.13;5031513;28;20076;-50
2021/03/31 11:19:41;;;;;;;19.52;9.43;;;;;;;22.19;33.29;97022.84;5000504;28;22932;-58
2021/03/31 11:27:39;;;;;;;22.63;9.98;;;;;;;22.58;32.92;97015.06;5031970;28;20075;-56
2021/03/31 11:30:10;;;;;;;17.15;8.23;;;;;;;22.87;32.67;97005.72;5007530;28;20738;-50
2021/03/31 11:32:37;;;;;;;20.55;9.35;;;;;;;22.79;32.12;97005.94;5033399;28;20519;-50
2021/03/31 11:35:06;;;;;;;15.95;8.10;;;;;;;22.90;31.45;97006.13;5011416;28;20093;-51
2021/03/31 11:37:33;;;;;;;15.43;7.90;;;;;;;23.22;30.68;97004.44;5030705;28;20053;-55
2021/03/31 11:40:02;;;;;;;14.10;7.78;;;;;;;22.41;31.35;97001.19;5012979;28;20545;-47
2021/03/31 11:42:29;;;;;;;17.90;7.65;;;;;;;22.98;29.86;96995.16;5026798;28;20486;-54
2021/03/31 11:44:57;;;;;;;16.95;8.20;;;;;;;22.35;30.68;96992.09;5036278;28;20465;-47
2021/03/31 11:47:24;;;;;;;15.63;7.88;;;;;;;23.13;30.12;96994.13;5016170;28;20072;-50
2021/03/31 11:49:51;;;;;;;14.82;8.40;;;;;;;22.28;31.82;96993.94;5026650;28;20079;-51